createdAt,value
2022-09-10T00:01:57.859Z,98.2
2022-09-10T00:13:57.880Z,98.2
2022-09-10T00:25:57.879Z,98.2
2022-09-10T00:37:57.897Z,98.2
2022-09-10T00:49:57.894Z,98.2
2022-09-10T01:01:57.910Z,98.2
2022-09-10T01:13:57.891Z,98.2
2022-09-10T01:25:57.876Z,98.2
2022-09-10T01:37:57.995Z,98.3
2022-09-10T01:49:58.218Z,98.3
2022-09-10T02:01:57.962Z,98.3
2022-09-10T02:13:57.929Z,98.3
2022-09-10T02:25:57.932Z,98.3
2022-09-10T02:37:57.907Z,98.3
2022-09-10T02:49:57.916Z,98.3
2022-09-10T03:01:57.936Z,98.3
2022-09-10T03:13:57.943Z,98.3
2022-09-10T03:25:57.922Z,98.3
2022-09-10T03:37:57.932Z,98.3
2022-09-10T03:49:57.897Z,98.3
2022-09-10T04:01:57.864Z,98.3
2022-09-10T04:13:57.875Z,98.3
2022-09-10T04:25:57.878Z,98.3
2022-09-10T04:37:57.866Z,98.2
2022-09-10T04:49:57.881Z,98.2
2022-09-10T05:01:57.929Z,98.2
2022-09-10T05:13:57.880Z,98.2
2022-09-10T05:25:57.889Z,98.2
2022-09-10T05:37:57.868Z,98.2
2022-09-10T05:49:57.897Z,98.3
2022-09-10T06:01:58.000Z,98.3
2022-09-10T06:13:57.872Z,98.3
2022-09-10T06:25:57.843Z,98.3
2022-09-10T06:37:57.882Z,98.3
2022-09-10T06:49:57.874Z,98.3
2022-09-10T07:01:57.953Z,98.3
2022-09-10T07:13:57.871Z,98.3
2022-09-10T07:25:58.792Z,98.4
2022-09-10T07:37:57.859Z,98.4
2022-09-10T07:49:57.937Z,98.3
2022-09-10T08:01:57.897Z,98.3
2022-09-10T08:13:57.838Z,98.3
2022-09-10T08:25:57.873Z,98.3
2022-09-10T08:37:57.854Z,98.3
2022-09-10T08:49:57.888Z,98.5
2022-09-10T09:01:58.001Z,98.5
2022-09-10T09:13:57.868Z,98.5
2022-09-10T09:25:57.874Z,95.4
2022-09-10T09:37:57.913Z,98.6
2022-09-10T09:49:58.367Z,98.8
2022-09-10T10:01:57.926Z,98.5
2022-09-10T10:13:57.881Z,98.5
2022-09-10T10:25:57.886Z,98.7
2022-09-10T10:37:57.865Z,98.7
2022-09-10T10:49:57.881Z,98.6
2022-09-10T11:01:58.281Z,98.7
2022-09-10T11:13:57.857Z,97.8
2022-09-10T11:25:58.081Z,98.8
2022-09-10T11:37:57.880Z,97.8
2022-09-10T11:49:57.896Z,92.7
2022-09-10T12:01:57.887Z,96.2
2022-09-10T12:13:57.873Z,85.5
2022-09-10T12:25:57.874Z,82.4
2022-09-10T12:37:57.855Z,76.9
2022-09-10T12:49:57.931Z,74.4
2022-09-10T13:01:57.955Z,91.5
2022-09-10T13:14:01.224Z,98.7
2022-09-10T13:25:57.879Z,98.6
2022-09-10T13:37:57.903Z,98.6
2022-09-10T13:49:58.289Z,98.6
2022-09-10T14:01:57.873Z,98.6
2022-09-10T14:13:57.877Z,98.6
2022-09-10T14:25:57.877Z,98.6
2022-09-10T14:37:57.876Z,98.5
2022-09-10T14:49:57.898Z,98.5
2022-09-10T15:01:57.865Z,98.5
2022-09-10T15:13:57.890Z,98.6
2022-09-10T15:25:57.880Z,98.6
2022-09-10T15:37:58.028Z,98.6
2022-09-10T15:49:57.873Z,98.6
2022-09-10T16:01:57.899Z,98.7
2022-09-10T16:14:02.172Z,98.7
2022-09-10T16:25:57.876Z,98.7
2022-09-10T16:37:57.840Z,98.7
2022-09-10T16:49:57.898Z,98.6
2022-09-10T17:01:57.961Z,98.6
2022-09-10T17:13:57.875Z,98.6
2022-09-10T17:25:57.959Z,98.6
2022-09-10T17:37:57.880Z,98.6
2022-09-10T17:49:57.861Z,98.6
2022-09-10T18:01:58.047Z,98.5
2022-09-10T18:13:58.022Z,98.5
2022-09-10T18:25:58.022Z,98.4
2022-09-10T18:37:57.857Z,98.4
2022-09-10T18:49:57.944Z,98.4
2022-09-10T19:01:57.980Z,98.4
2022-09-10T19:13:57.866Z,98.4
2022-09-10T19:25:57.868Z,98.4
2022-09-10T19:37:57.850Z,98.4
2022-09-10T19:49:57.944Z,98.5
2022-09-10T20:01:58.457Z,98.5
2022-09-10T20:13:58.605Z,98.5
2022-09-10T20:25:58.169Z,98.4
2022-09-10T20:37:58.467Z,98.4
2022-09-10T20:49:58.746Z,98.4
2022-09-10T21:01:58.037Z,98.4
2022-09-10T21:13:57.897Z,98.4
2022-09-10T21:25:57.857Z,98.4
2022-09-10T21:37:57.947Z,98.4
2022-09-10T21:49:57.871Z,98.4
2022-09-10T22:01:58.051Z,98.4
2022-09-10T22:13:57.931Z,98.4
2022-09-10T22:25:57.856Z,98.4
2022-09-10T22:37:57.878Z,98.4
2022-09-10T22:49:57.915Z,98.4
2022-09-10T23:01:57.893Z,98.4
2022-09-10T23:13:57.845Z,98.4
2022-09-10T23:25:57.881Z,98.4
2022-09-10T23:37:57.879Z,98.4
2022-09-10T23:49:57.872Z,98.4
